Terminal Aerodrome Forecast
Issued by NWS Sioux Falls, SD

Home | Current Version | Previous Version | Text Only | Print | Product List | Glossary On
Versions: 1 2 3 4 5 6 7 8 9 10 11 12 13 14 15 16 17 18 19
000
FTUS43 KFSD 202000 AAA
TAFFSD
TAF AMD
KFSD 202005Z 2020/2118 16013G18KT P6SM SCT100 BKN150
     FM202100 16013G18KT P6SM SCT050 BKN120
      TEMPO 2022/2024 P6SM SHRA BKN050
     FM210100 14010KT P6SM SCT040 BKN120
      TEMPO 2105/2107 4SM TSRA BKN040CB
     FM210900 16005KT 4SM BR BKN010
     FM211500 17006KT P6SM SCT015=

USA.gov is the U.S. government's official web portal to all federal, state and local government web resources and services.